YSSYYMAY

Guest
Details From YSSY - Sydney Intl
To YMAY - Albury Airport
Flight Number -
Tags generated
Created
Modified
Stats Distance 244 nm / 452 km
Max Altitude 30,700 ft / 9,357 m
Waypoints 4
Social Downloads 4
Likes 0
Share VATSIM

Download

Looking for another format? Having issues loading an existing format? Contact us
Advertisement - Login to hide

Notes

Basic altitude profile: - Ascent Rate: 2500ft/min - Ascent Speed: 250kts - Cruise Altitude: 35000ft - Cruise Speed: 420kts - Descent Rate: 1500ft/min - Descent Speed: 250kts Options: - Use NATs: yes - Use PACOTS: yes - Use low airways: yes - Use high airways: no

Route

YSSY CULIN Y59 NONUP YMAY

ID Type Via Altitude Latitude Longitude Leg Dist Tot Dist Heading (true) Name
O YSSY APT - 0 ft / 0 m -33.94927˚ 151.18135˚ - 0 nm - Sydney Intl
CULIN FIX - 30,700 ft / 9,357 m -34.74000˚ 149.39000˚ 100 nm 100 nm 241° / 242° -
NONUP FIX Y59 (AWY-LO) 18,000 ft / 5,486 m -35.43056˚ 148.29889˚ 67 nm 168 nm 232° / 233° -
O YMAY APT - 0 ft / 0 m -36.06676˚ 146.95934˚ 75 nm 244 nm 239° / 240° Albury Airport

Altitude Profile

Advertisement - Login to hide

Weather


0- 5 10 15 20 25 30 35+ Temperature / ° C

Clouds and Precipitation
Forecast for 2017-12-13 18:00 UTC. Updated 2 hours ago

Ground ~20,000 ft ~40,000 ft Winds

YSSY

Details ICAO YSSY (SYD)
Name Sydney Intl
Region Australia
Timezone Australia/Sydney (UTC+11.0)
Stats Elevation 21 ft / 6 m (AMSL)
Location -33.949273° 151.181347°
Runways 3
Magnetic Variation 12.599° E

METAR

YSSY 131830Z 02010KT CAVOK 22/19 Q1007 NOSIG

Decode

TAF

TAF YSSY 131633Z 1318/1424 01010KT CAVOK FM140200 04015KT CAVOK FM140900 01010KT CAVOK FM141500 18015G25KT 9000 HZ BKN010 FM142100 18015KT 9999 -SHRA BKN020

Decode

Departure Runways

ID Width Length Bearing (true) Bearing (mag) Surface Threshold Offset Overrun Length
07 148 ft / 45 m 8,285 ft / 2,525 m 74.13° 61.53° Asphalt 0 ft / 0 m 0 ft / 0 m
16L 148 ft / 45 m 8,018 ft / 2,444 m 167.81° 155.21° Asphalt 758 ft / 231 m 0 ft / 0 m
16R 148 ft / 45 m 13,033 ft / 3,973 m 167.86° 155.26° Asphalt 279 ft / 85 m 0 ft / 0 m
25 148 ft / 45 m 8,285 ft / 2,525 m 254.12° 241.52° Asphalt 324 ft / 99 m 0 ft / 0 m
34L 148 ft / 45 m 13,033 ft / 3,973 m 347.85° 335.25° Asphalt 0 ft / 0 m 0 ft / 0 m
34R 148 ft / 45 m 8,018 ft / 2,444 m 347.81° 335.21° Asphalt 125 ft / 38 m 0 ft / 0 m

YMAY

Details ICAO YMAY (ABX)
Name Albury Airport
Region Australia
Timezone Australia/Sydney (UTC+11.0)
Stats Elevation 539 ft / 164 m (AMSL)
Location -36.066760° 146.959338°
Runways 1
Magnetic Variation 11.818° E

METAR

YMAY 131900Z AUTO 18002KT 9999 // NCD 20/13 Q1004

Decode

TAF

Not found

Destination Runways

ID Width Length Bearing (true) Bearing (mag) Surface Threshold Offset Overrun Length
07 98 ft / 30 m 6,222 ft / 1,897 m 81.11° 69.29° Asphalt 0 ft / 0 m 0 ft / 0 m
25 98 ft / 30 m 6,222 ft / 1,897 m 261.09° 249.27° Asphalt 0 ft / 0 m 0 ft / 0 m

Popular Alternatives